sensor_id;sensor_type;location;lat;lon;timestamp;pressure;altitude;pressure_sealevel;temperature;humidity
59825;BME280;45703;50.898;6.054;2023-07-31T00:01:17;99835.94;;;17.05;100.00
59825;BME280;45703;50.898;6.054;2023-07-31T00:03:42;99829.47;;;17.01;100.00
59825;BME280;45703;50.898;6.054;2023-07-31T00:06:08;99835.66;;;17.07;99.12
59825;BME280;45703;50.898;6.054;2023-07-31T00:08:33;99826.22;;;17.04;98.96
59825;BME280;45703;50.898;6.054;2023-07-31T00:10:59;99827.56;;;17.07;98.74
59825;BME280;45703;50.898;6.054;2023-07-31T00:13:24;99828.09;;;17.09;98.72
59825;BME280;45703;50.898;6.054;2023-07-31T00:15:49;99827.56;;;17.02;98.51
59825;BME280;45703;50.898;6.054;2023-07-31T00:18:15;99820.56;;;17.01;98.32
59825;BME280;45703;50.898;6.054;2023-07-31T00:20:41;99823.78;;;17.03;98.18
59825;BME280;45703;50.898;6.054;2023-07-31T00:23:06;99821.63;;;17.00;98.23
59825;BME280;45703;50.898;6.054;2023-07-31T00:25:31;99819.75;;;17.00;98.43
59825;BME280;45703;50.898;6.054;2023-07-31T00:27:57;99810.59;;;16.96;98.32
59825;BME280;45703;50.898;6.054;2023-07-31T00:30:22;99810.06;;;16.94;98.16
59825;BME280;45703;50.898;6.054;2023-07-31T00:32:47;99812.50;;;16.91;98.41
59825;BME280;45703;50.898;6.054;2023-07-31T00:35:13;99820.56;;;16.96;98.15
59825;BME280;45703;50.898;6.054;2023-07-31T00:37:38;99813.03;;;16.88;98.12
59825;BME280;45703;50.898;6.054;2023-07-31T00:40:04;99815.72;;;16.93;98.25
59825;BME280;45703;50.898;6.054;2023-07-31T00:42:29;99809.53;;;16.92;98.24
59825;BME280;45703;50.898;6.054;2023-07-31T00:44:55;99800.38;;;16.88;98.32
59825;BME280;45703;50.898;6.054;2023-07-31T00:47:20;99787.44;;;16.85;98.61
59825;BME280;45703;50.898;6.054;2023-07-31T00:49:46;99801.19;;;16.84;98.58
59825;BME280;45703;50.898;6.054;2023-07-31T00:52:12;99806.56;;;16.84;98.42
59825;BME280;45703;50.898;6.054;2023-07-31T00:54:37;99799.03;;;16.86;98.13
59825;BME280;45703;50.898;6.054;2023-07-31T00:57:03;99802.00;;;16.89;98.26
59825;BME280;45703;50.898;6.054;2023-07-31T00:59:29;99796.06;;;16.87;98.09
59825;BME280;45703;50.898;6.054;2023-07-31T01:01:54;99792.56;;;16.87;98.01
59825;BME280;45703;50.898;6.054;2023-07-31T01:04:20;99799.56;;;16.88;98.81
59825;BME280;45703;50.898;6.054;2023-07-31T01:07:14;99796.31;;;16.91;98.48
59825;BME280;45703;50.898;6.054;2023-07-31T01:12:14;99785.00;;;16.89;99.24
59825;BME280;45703;50.898;6.054;2023-07-31T01:14:50;99769.38;;;16.81;98.96
59825;BME280;45703;50.898;6.054;2023-07-31T01:17:16;99776.66;;;16.85;99.22
59825;BME280;45703;50.898;6.054;2023-07-31T01:19:41;99772.03;;;16.91;99.70
59825;BME280;45703;50.898;6.054;2023-07-31T01:22:22;99776.34;;;16.92;99.10
59825;BME280;45703;50.898;6.054;2023-07-31T01:25:16;99770.97;;;16.92;98.77
59825;BME280;45703;50.898;6.054;2023-07-31T01:27:59;99782.56;;;16.92;99.42
59825;BME280;45703;50.898;6.054;2023-07-31T01:30:32;99766.94;;;16.89;99.53
59825;BME280;45703;50.898;6.054;2023-07-31T01:33:01;99776.88;;;16.99;99.94
59825;BME280;45703;50.898;6.054;2023-07-31T01:35:33;99776.09;;;16.98;99.78
59825;BME280;45703;50.898;6.054;2023-07-31T01:37:58;99766.91;;;16.99;99.77
59825;BME280;45703;50.898;6.054;2023-07-31T01:40:24;99770.41;;;16.95;100.00
59825;BME280;45703;50.898;6.054;2023-07-31T01:42:49;99770.69;;;16.98;99.94
59825;BME280;45703;50.898;6.054;2023-07-31T01:45:14;99766.38;;;16.97;100.00
59825;BME280;45703;50.898;6.054;2023-07-31T01:47:40;99761.25;;;16.96;100.00
59825;BME280;45703;50.898;6.054;2023-07-31T01:50:05;99742.34;;;17.01;100.00
59825;BME280;45703;50.898;6.054;2023-07-31T01:52:31;99758.81;;;17.04;99.81
59825;BME280;45703;50.898;6.054;2023-07-31T01:54:56;99752.31;;;17.05;99.21
59825;BME280;45703;50.898;6.054;2023-07-31T01:57:22;99753.13;;;17.11;99.46
59825;BME280;45703;50.898;6.054;2023-07-31T01:59:47;99758.75;;;17.14;99.75
59825;BME280;45703;50.898;6.054;2023-07-31T02:02:12;99750.94;;;17.18;99.38
59825;BME280;45703;50.898;6.054;2023-07-31T02:04:38;99747.75;;;17.11;98.91
59825;BME280;45703;50.898;6.054;2023-07-31T02:07:05;99746.63;;;17.17;99.30
59825;BME280;45703;50.898;6.054;2023-07-31T02:09:30;99743.66;;;17.18;99.18
59825;BME280;45703;50.898;6.054;2023-07-31T02:11:55;99734.22;;;17.21;98.43
59825;BME280;45703;50.898;6.054;2023-07-31T02:14:21;99741.25;;;17.17;98.41
59825;BME280;45703;50.898;6.054;2023-07-31T02:16:46;99734.47;;;17.19;98.64
59825;BME280;45703;50.898;6.054;2023-07-31T02:19:11;99717.78;;;17.12;98.52
59825;BME280;45703;50.898;6.054;2023-07-31T02:21:37;99728.53;;;17.22;98.73
59825;BME280;45703;50.898;6.054;2023-07-31T02:24:02;99736.91;;;17.21;98.49
59825;BME280;45703;50.898;6.054;2023-07-31T02:26:28;99722.88;;;17.19;98.96
59825;BME280;45703;50.898;6.054;2023-07-31T02:28:53;99740.69;;;17.20;98.70
59825;BME280;45703;50.898;6.054;2023-07-31T02:31:18;99725.28;;;17.20;98.53
59825;BME280;45703;50.898;6.054;2023-07-31T02:33:44;99725.56;;;17.24;98.28
59825;BME280;45703;50.898;6.054;2023-07-31T02:36:09;99725.56;;;17.24;98.25
59825;BME280;45703;50.898;6.054;2023-07-31T02:38:35;99717.50;;;17.19;98.33
59825;BME280;45703;50.898;6.054;2023-07-31T02:41:00;99722.88;;;17.24;98.35
59825;BME280;45703;50.898;6.054;2023-07-31T02:43:25;99715.56;;;17.24;98.28
59825;BME280;45703;50.898;6.054;2023-07-31T02:45:54;99704.22;;;17.27;98.03
59825;BME280;45703;50.898;6.054;2023-07-31T02:48:19;99710.44;;;17.28;97.59
59825;BME280;45703;50.898;6.054;2023-07-31T02:50:45;99711.00;;;17.25;97.49
59825;BME280;45703;50.898;6.054;2023-07-31T02:53:11;99718.53;;;17.33;97.97
59825;BME280;45703;50.898;6.054;2023-07-31T02:55:39;99712.03;;;17.34;97.59
59825;BME280;45703;50.898;6.054;2023-07-31T02:58:05;99692.91;;;17.25;97.76
59825;BME280;45703;50.898;6.054;2023-07-31T03:00:30;99708.03;;;17.21;97.55
59825;BME280;45703;50.898;6.054;2023-07-31T03:02:55;99706.66;;;17.29;97.69
59825;BME280;45703;50.898;6.054;2023-07-31T03:05:21;99703.94;;;17.34;97.88
59825;BME280;45703;50.898;6.054;2023-07-31T03:07:46;99686.19;;;17.23;97.84
59825;BME280;45703;50.898;6.054;2023-07-31T03:10:14;99697.19;;;17.26;97.63
59825;BME280;45703;50.898;6.054;2023-07-31T03:12:40;99689.41;;;17.25;97.43
59825;BME280;45703;50.898;6.054;2023-07-31T03:15:06;99695.59;;;17.25;97.71
59825;BME280;45703;50.898;6.054;2023-07-31T03:17:31;99694.78;;;17.30;97.39
59825;BME280;45703;50.898;6.054;2023-07-31T03:19:57;99687.47;;;17.30;97.19
59825;BME280;45703;50.898;6.054;2023-07-31T03:22:22;99696.94;;;17.33;97.46
59825;BME280;45703;50.898;6.054;2023-07-31T03:24:47;99695.03;;;17.33;97.39
59825;BME280;45703;50.898;6.054;2023-07-31T03:27:13;99689.06;;;17.31;97.76
59825;BME280;45703;50.898;6.054;2023-07-31T03:29:38;99690.47;;;17.29;97.65
59825;BME280;45703;50.898;6.054;2023-07-31T03:32:04;99676.44;;;17.27;97.53
59825;BME280;45703;50.898;6.054;2023-07-31T03:34:29;99682.38;;;17.29;97.37
59825;BME280;45703;50.898;6.054;2023-07-31T03:36:57;99683.97;;;17.30;97.59
59825;BME280;45703;50.898;6.054;2023-07-31T03:39:22;99666.22;;;17.24;97.97
59825;BME280;45703;50.898;6.054;2023-07-31T03:41:48;99675.88;;;17.30;97.42
59825;BME280;45703;50.898;6.054;2023-07-31T03:44:13;99670.75;;;17.33;97.08
59825;BME280;45703;50.898;6.054;2023-07-31T03:46:39;99676.41;;;17.32;97.16
59825;BME280;45703;50.898;6.054;2023-07-31T03:49:04;99675.88;;;17.35;97.27
59825;BME280;45703;50.898;6.054;2023-07-31T03:51:29;99668.88;;;17.34;97.23
59825;BME280;45703;50.898;6.054;2023-07-31T03:53:55;99670.50;;;17.30;97.00
59825;BME280;45703;50.898;6.054;2023-07-31T03:56:20;99658.09;;;17.34;96.79
59825;BME280;45703;50.898;6.054;2023-07-31T03:58:45;99661.31;;;17.36;97.10
59825;BME280;45703;50.898;6.054;2023-07-31T04:01:11;99659.16;;;17.33;96.93
59825;BME280;45703;50.898;6.054;2023-07-31T04:03:36;99655.91;;;17.36;96.65
59825;BME280;45703;50.898;6.054;2023-07-31T04:06:02;99661.84;;;17.38;96.54
59825;BME280;45703;50.898;6.054;2023-07-31T04:08:28;99659.66;;;17.40;96.23
59825;BME280;45703;50.898;6.054;2023-07-31T04:10:53;99666.13;;;17.43;96.08
59825;BME280;45703;50.898;6.054;2023-07-31T04:13:18;99663.16;;;17.45;95.84
59825;BME280;45703;50.898;6.054;2023-07-31T04:15:48;99661.00;;;17.42;96.09
59825;BME280;45703;50.898;6.054;2023-07-31T04:18:15;99646.72;;;17.37;95.82
59825;BME280;45703;50.898;6.054;2023-07-31T04:20:40;99652.66;;;17.39;96.51
59825;BME280;45703;50.898;6.054;2023-07-31T04:23:05;99654.28;;;17.40;96.73
59825;BME280;45703;50.898;6.054;2023-07-31T04:25:31;99648.38;;;17.33;96.51
59825;BME280;45703;50.898;6.054;2023-07-31T04:27:56;99637.59;;;17.33;95.87
59825;BME280;45703;50.898;6.054;2023-07-31T04:30:22;99643.47;;;17.40;96.47
59825;BME280;45703;50.898;6.054;2023-07-31T04:32:47;99629.75;;;17.36;96.22
59825;BME280;45703;50.898;6.054;2023-07-31T04:35:14;99641.84;;;17.39;96.19
59825;BME280;45703;50.898;6.054;2023-07-31T04:37:39;99635.91;;;17.42;96.16
59825;BME280;45703;50.898;6.054;2023-07-31T04:40:05;99630.50;;;17.42;96.10
59825;BME280;45703;50.898;6.054;2023-07-31T04:42:30;99620.28;;;17.39;95.97
59825;BME280;45703;50.898;6.054;2023-07-31T04:44:56;99625.63;;;17.43;96.03
59825;BME280;45703;50.898;6.054;2023-07-31T04:47:21;99626.97;;;17.46;95.54
59825;BME280;45703;50.898;6.054;2023-07-31T04:49:47;99629.91;;;17.49;95.41
59825;BME280;45703;50.898;6.054;2023-07-31T04:52:12;99615.94;;;17.42;96.12
59825;BME280;45703;50.898;6.054;2023-07-31T04:54:37;99621.59;;;17.46;95.88
59825;BME280;45703;50.898;6.054;2023-07-31T04:57:03;99620.75;;;17.45;95.64
59825;BME280;45703;50.898;6.054;2023-07-31T04:59:28;99612.13;;;17.43;95.87
59825;BME280;45703;50.898;6.054;2023-07-31T05:01:53;99615.38;;;17.45;95.40
59825;BME280;45703;50.898;6.054;2023-07-31T05:04:19;99603.78;;;17.45;95.89
59825;BME280;45703;50.898;6.054;2023-07-31T05:06:44;99602.13;;;17.49;95.75
59825;BME280;45703;50.898;6.054;2023-07-31T05:09:10;99608.56;;;17.53;95.36
59825;BME280;45703;50.898;6.054;2023-07-31T05:11:35;99601.03;;;17.50;95.65
59825;BME280;45703;50.898;6.054;2023-07-31T05:14:01;99594.81;;;17.49;95.98
59825;BME280;45703;50.898;6.054;2023-07-31T05:16:26;99593.22;;;17.48;95.39
59825;BME280;45703;50.898;6.054;2023-07-31T05:18:52;99581.38;;;17.44;95.65
59825;BME280;45703;50.898;6.054;2023-07-31T05:21:17;99596.47;;;17.45;95.69
59825;BME280;45703;50.898;6.054;2023-07-31T05:23:42;99600.00;;;17.46;96.42
59825;BME280;45703;50.898;6.054;2023-07-31T05:26:08;99604.56;;;17.45;96.64
59825;BME280;45703;50.898;6.054;2023-07-31T05:28:35;99596.22;;;17.47;96.25
59825;BME280;45703;50.898;6.054;2023-07-31T05:31:02;99579.75;;;17.43;96.38
59825;BME280;45703;50.898;6.054;2023-07-31T05:33:28;99582.19;;;17.45;96.65
59825;BME280;45703;50.898;6.054;2023-07-31T05:35:53;99590.03;;;17.42;97.92
59825;BME280;45703;50.898;6.054;2023-07-31T05:38:18;99586.03;;;17.34;97.45
59825;BME280;45703;50.898;6.054;2023-07-31T05:40:44;99588.16;;;17.32;97.97
59825;BME280;45703;50.898;6.054;2023-07-31T05:43:09;99583.63;;;17.33;99.11
59825;BME280;45703;50.898;6.054;2023-07-31T05:45:35;99579.88;;;17.24;100.00
59825;BME280;45703;50.898;6.054;2023-07-31T05:48:00;99576.41;;;17.18;99.85
59825;BME280;45703;50.898;6.054;2023-07-31T05:50:26;99582.63;;;17.19;100.00
59825;BME280;45703;50.898;6.054;2023-07-31T05:52:51;99586.91;;;17.20;100.00
59825;BME280;45703;50.898;6.054;2023-07-31T05:55:17;99582.63;;;17.19;100.00
59825;BME280;45703;50.898;6.054;2023-07-31T05:57:42;99584.22;;;17.20;100.00
59825;BME280;45703;50.898;6.054;2023-07-31T06:00:08;99573.19;;;17.16;100.00
59825;BME280;45703;50.898;6.054;2023-07-31T06:02:33;99561.25;;;17.22;100.00
59825;BME280;45703;50.898;6.054;2023-07-31T06:05:02;99571.78;;;17.24;100.00
59825;BME280;45703;50.898;6.054;2023-07-31T06:07:29;99565.88;;;17.22;100.00
59825;BME280;45703;50.898;6.054;2023-07-31T06:09:54;99563.91;;;17.27;100.00
59825;BME280;45703;50.898;6.054;2023-07-31T06:12:20;99567.97;;;17.30;100.00
59825;BME280;45703;50.898;6.054;2023-07-31T06:14:46;99569.81;;;17.39;100.00
59825;BME280;45703;50.898;6.054;2023-07-31T06:17:11;99564.66;;;17.42;100.00
59825;BME280;45703;50.898;6.054;2023-07-31T06:19:36;99559.25;;;17.42;100.00
59825;BME280;45703;50.898;6.054;2023-07-31T06:22:02;99571.06;;;17.51;100.00
59825;BME280;45703;50.898;6.054;2023-07-31T06:24:28;99570.00;;;17.47;100.00
59825;BME280;45703;50.898;6.054;2023-07-31T06:26:53;99568.88;;;17.53;99.54
59825;BME280;45703;50.898;6.054;2023-07-31T06:29:20;99572.09;;;17.55;99.73
59825;BME280;45703;50.898;6.054;2023-07-31T06:31:45;99567.53;;;17.56;99.79
59825;BME280;45703;50.898;6.054;2023-07-31T06:34:11;99558.34;;;17.57;99.15
59825;BME280;45703;50.898;6.054;2023-07-31T06:36:36;99555.91;;;17.55;99.30
59825;BME280;45703;50.898;6.054;2023-07-31T06:39:01;99556.94;;;17.59;98.79
59825;BME280;45703;50.898;6.054;2023-07-31T06:41:27;99568.00;;;17.63;98.48
59825;BME280;45703;50.898;6.054;2023-07-31T06:43:52;99562.34;;;17.64;98.53
59825;BME280;45703;50.898;6.054;2023-07-31T06:46:18;99570.91;;;17.71;98.70
59825;BME280;45703;50.898;6.054;2023-07-31T06:48:43;99561.25;;;17.65;99.25
59825;BME280;45703;50.898;6.054;2023-07-31T06:51:09;99569.88;;;17.67;99.55
59825;BME280;45703;50.898;6.054;2023-07-31T06:53:34;99565.25;;;17.68;99.14
59825;BME280;45703;50.898;6.054;2023-07-31T06:56:00;99582.28;;;17.68;99.53
59825;BME280;45703;50.898;6.054;2023-07-31T06:58:25;99582.84;;;17.65;99.65
59825;BME280;45703;50.898;6.054;2023-07-31T07:00:50;99561.81;;;17.62;99.57
59825;BME280;45703;50.898;6.054;2023-07-31T07:03:18;99576.63;;;17.65;99.63
59825;BME280;45703;50.898;6.054;2023-07-31T07:05:43;99572.34;;;17.59;99.71
59825;BME280;45703;50.898;6.054;2023-07-31T07:08:09;99571.00;;;17.56;100.00
59825;BME280;45703;50.898;6.054;2023-07-31T07:10:34;99573.72;;;17.56;100.00
59825;BME280;45703;50.898;6.054;2023-07-31T07:13:00;99554.91;;;17.46;100.00
59825;BME280;45703;50.898;6.054;2023-07-31T07:15:25;99560.59;;;17.45;100.00
59825;BME280;45703;50.898;6.054;2023-07-31T07:17:51;99563.56;;;17.43;100.00
59825;BME280;45703;50.898;6.054;2023-07-31T07:20:16;99549.88;;;17.35;100.00
59825;BME280;45703;50.898;6.054;2023-07-31T07:22:41;99558.47;;;17.32;100.00
59825;BME280;45703;50.898;6.054;2023-07-31T07:25:08;99558.78;;;17.31;100.00
59825;BME280;45703;50.898;6.054;2023-07-31T07:27:34;99551.25;;;17.33;100.00
59825;BME280;45703;50.898;6.054;2023-07-31T07:29:59;99556.63;;;17.33;100.00
59825;BME280;45703;50.898;6.054;2023-07-31T07:32:25;99553.66;;;17.29;100.00
59825;BME280;45703;50.898;6.054;2023-07-31T07:34:51;99556.88;;;17.31;100.00
59825;BME280;45703;50.898;6.054;2023-07-31T07:37:16;99557.44;;;17.28;100.00
59825;BME280;45703;50.898;6.054;2023-07-31T07:39:42;99563.13;;;17.27;100.00
59825;BME280;45703;50.898;6.054;2023-07-31T07:42:07;99559.09;;;17.24;100.00
59825;BME280;45703;50.898;6.054;2023-07-31T07:44:33;99560.41;;;17.32;100.00
59825;BME280;45703;50.898;6.054;2023-07-31T07:46:58;99550.16;;;17.34;100.00
59825;BME280;45703;50.898;6.054;2023-07-31T07:49:23;99540.44;;;17.33;100.00
59825;BME280;45703;50.898;6.054;2023-07-31T07:51:49;99538.81;;;17.32;100.00
59825;BME280;45703;50.898;6.054;2023-07-31T07:54:15;99540.72;;;17.36;100.00
59825;BME280;45703;50.898;6.054;2023-07-31T07:56:42;99532.63;;;17.36;100.00
59825;BME280;45703;50.898;6.054;2023-07-31T07:59:08;99530.66;;;17.42;100.00
59825;BME280;45703;50.898;6.054;2023-07-31T08:01:33;99528.44;;;17.48;100.00
59825;BME280;45703;50.898;6.054;2023-07-31T08:04:00;99536.19;;;17.60;100.00
59825;BME280;45703;50.898;6.054;2023-07-31T08:06:25;99521.84;;;17.64;100.00
59825;BME280;45703;50.898;6.054;2023-07-31T08:08:51;99515.56;;;17.69;100.00
59825;BME280;45703;50.898;6.054;2023-07-31T08:11:16;99522.53;;;17.75;100.00
59825;BME280;45703;50.898;6.054;2023-07-31T08:13:41;99511.72;;;17.75;100.00
59825;BME280;45703;50.898;6.054;2023-07-31T08:16:07;99515.19;;;17.80;100.00
59825;BME280;45703;50.898;6.054;2023-07-31T08:18:32;99513.06;;;17.77;100.00
59825;BME280;45703;50.898;6.054;2023-07-31T08:20:58;99520.34;;;17.77;100.00
59825;BME280;45703;50.898;6.054;2023-07-31T08:23:24;99523.06;;;17.77;100.00
59825;BME280;45703;50.898;6.054;2023-07-31T08:25:49;99522.78;;;17.78;100.00
59825;BME280;45703;50.898;6.054;2023-07-31T08:28:15;99515.81;;;17.72;100.00
59825;BME280;45703;50.898;6.054;2023-07-31T08:30:41;99524.38;;;17.79;100.00
59825;BME280;45703;50.898;6.054;2023-07-31T08:33:07;99534.94;;;17.76;100.00
59825;BME280;45703;50.898;6.054;2023-07-31T08:35:32;99517.44;;;17.73;100.00
59825;BME280;45703;50.898;6.054;2023-07-31T08:37:58;99533.84;;;17.77;100.00
59825;BME280;45703;50.898;6.054;2023-07-31T08:40:23;99534.72;;;17.72;100.00
59825;BME280;45703;50.898;6.054;2023-07-31T08:42:51;99533.69;;;17.68;100.00
59825;BME280;45703;50.898;6.054;2023-07-31T08:45:19;99531.59;;;17.60;100.00
59825;BME280;45703;50.898;6.054;2023-07-31T08:47:47;99534.00;;;17.62;100.00
59825;BME280;45703;50.898;6.054;2023-07-31T08:50:13;99533.22;;;17.61;100.00
59825;BME280;45703;50.898;6.054;2023-07-31T08:52:39;99520.81;;;17.60;100.00
59825;BME280;45703;50.898;6.054;2023-07-31T08:55:06;99521.03;;;17.64;100.00
59825;BME280;45703;50.898;6.054;2023-07-31T08:57:34;99521.84;;;17.64;100.00
59825;BME280;45703;50.898;6.054;2023-07-31T09:00:00;99520.44;;;17.67;100.00
59825;BME280;45703;50.898;6.054;2023-07-31T09:02:31;99525.59;;;17.68;100.00
59825;BME280;45703;50.898;6.054;2023-07-31T09:05:00;99522.81;;;17.73;100.00
59825;BME280;45703;50.898;6.054;2023-07-31T09:07:25;99519.22;;;17.83;100.00
59825;BME280;45703;50.898;6.054;2023-07-31T09:09:51;99520.28;;;17.87;100.00
59825;BME280;45703;50.898;6.054;2023-07-31T09:12:16;99515.97;;;17.86;100.00
59825;BME280;45703;50.898;6.054;2023-07-31T09:14:44;99525.09;;;17.90;100.00
59825;BME280;45703;50.898;6.054;2023-07-31T09:17:10;99520.97;;;17.97;100.00
59825;BME280;45703;50.898;6.054;2023-07-31T09:19:36;99514.91;;;18.05;100.00
59825;BME280;45703;50.898;6.054;2023-07-31T09:22:05;99522.44;;;18.08;100.00
59825;BME280;45703;50.898;6.054;2023-07-31T09:24:33;99516.25;;;18.08;100.00
59825;BME280;45703;50.898;6.054;2023-07-31T09:26:59;99514.34;;;18.08;100.00
59825;BME280;45703;50.898;6.054;2023-07-31T09:29:26;99514.88;;;18.10;100.00
59825;BME280;45703;50.898;6.054;2023-07-31T09:31:53;99503.50;;;18.13;100.00
59825;BME280;45703;50.898;6.054;2023-07-31T09:34:19;99520.75;;;18.17;100.00
59825;BME280;45703;50.898;6.054;2023-07-31T09:36:50;99513.94;;;18.20;100.00
59825;BME280;45703;50.898;6.054;2023-07-31T09:39:17;99509.13;;;18.17;100.00
59825;BME280;45703;50.898;6.054;2023-07-31T09:41:44;99521.59;;;18.13;100.00
59825;BME280;45703;50.898;6.054;2023-07-31T09:44:10;99511.63;;;18.13;100.00
59825;BME280;45703;50.898;6.054;2023-07-31T09:46:36;99509.44;;;18.15;100.00
59825;BME280;45703;50.898;6.054;2023-07-31T09:49:06;99505.34;;;18.18;100.00
59825;BME280;45703;50.898;6.054;2023-07-31T09:51:32;99506.66;;;18.20;100.00
59825;BME280;45703;50.898;6.054;2023-07-31T09:53:57;99508.28;;;18.21;100.00
59825;BME280;45703;50.898;6.054;2023-07-31T09:56:23;99500.75;;;18.18;100.00
59825;BME280;45703;50.898;6.054;2023-07-31T09:58:49;99495.34;;;18.18;100.00
59825;BME280;45703;50.898;6.054;2023-07-31T10:01:15;99499.06;;;18.22;100.00
59825;BME280;45703;50.898;6.054;2023-07-31T10:03:42;99509.31;;;18.25;100.00
59825;BME280;45703;50.898;6.054;2023-07-31T10:06:10;99503.38;;;18.23;100.00
59825;BME280;45703;50.898;6.054;2023-07-31T10:08:39;99494.16;;;18.29;100.00
59825;BME280;45703;50.898;6.054;2023-07-31T10:11:07;99502.25;;;18.29;100.00
59825;BME280;45703;50.898;6.054;2023-07-31T10:13:35;99501.75;;;18.27;100.00
59825;BME280;45703;50.898;6.054;2023-07-31T10:16:01;99490.94;;;18.27;100.00
59825;BME280;45703;50.898;6.054;2023-07-31T10:18:27;99503.28;;;18.33;100.00
59825;BME280;45703;50.898;6.054;2023-07-31T10:20:54;99501.69;;;18.32;100.00
59825;BME280;45703;50.898;6.054;2023-07-31T10:23:20;99502.25;;;18.29;100.00
59825;BME280;45703;50.898;6.054;2023-07-31T10:25:46;99502.25;;;18.29;100.00
59825;BME280;45703;50.898;6.054;2023-07-31T10:28:13;99497.69;;;18.25;100.00
59825;BME280;45703;50.898;6.054;2023-07-31T10:30:39;99493.16;;;18.20;100.00
59825;BME280;45703;50.898;6.054;2023-07-31T10:33:06;99500.13;;;18.26;100.00
59825;BME280;45703;50.898;6.054;2023-07-31T10:35:32;99501.19;;;18.25;100.00
59825;BME280;45703;50.898;6.054;2023-07-31T10:38:09;99499.03;;;18.27;100.00
59825;BME280;45703;50.898;6.054;2023-07-31T10:40:36;99496.03;;;18.29;100.00
59825;BME280;45703;50.898;6.054;2023-07-31T10:43:03;99487.16;;;18.28;100.00
59825;BME280;45703;50.898;6.054;2023-07-31T10:45:39;99494.09;;;18.34;100.00
59825;BME280;45703;50.898;6.054;2023-07-31T10:48:12;99497.31;;;18.36;100.00
59825;BME280;45703;50.898;6.054;2023-07-31T10:50:46;99488.38;;;18.36;100.00
59825;BME280;45703;50.898;6.054;2023-07-31T10:53:23;99487.59;;;18.35;100.00
59825;BME280;45703;50.898;6.054;2023-07-31T10:55:49;99478.31;;;18.41;100.00
59825;BME280;45703;50.898;6.054;2023-07-31T10:58:18;99487.38;;;18.50;100.00
59825;BME280;45703;50.898;6.054;2023-07-31T11:00:44;99473.81;;;18.55;100.00
59825;BME280;45703;50.898;6.054;2023-07-31T11:03:17;99477.50;;;18.64;100.00
59825;BME280;45703;50.898;6.054;2023-07-31T11:05:47;99475.50;;;18.70;100.00
59825;BME280;45703;50.898;6.054;2023-07-31T11:08:22;99476.53;;;18.74;100.00
59825;BME280;45703;50.898;6.054;2023-07-31T11:10:50;99485.22;;;18.71;100.00
59825;BME280;45703;50.898;6.054;2023-07-31T11:13:16;99487.84;;;18.76;100.00
59825;BME280;45703;50.898;6.054;2023-07-31T11:15:42;99469.31;;;18.69;100.00
59825;BME280;45703;50.898;6.054;2023-07-31T11:18:07;99477.91;;;18.71;100.00
59825;BME280;45703;50.898;6.054;2023-07-31T11:20:37;99487.06;;;18.75;99.49
59825;BME280;45703;50.898;6.054;2023-07-31T11:23:06;99472.78;;;18.70;99.22
59825;BME280;45703;50.898;6.054;2023-07-31T11:25:32;99475.72;;;18.73;99.39
59825;BME280;45703;50.898;6.054;2023-07-31T11:28:14;99484.63;;;18.74;99.19
59825;BME280;45703;50.898;6.054;2023-07-31T11:30:41;99478.44;;;18.73;99.83
59825;BME280;45703;50.898;6.054;2023-07-31T11:33:08;99476.00;;;18.72;99.65
59825;BME280;45703;50.898;6.054;2023-07-31T11:35:35;99477.91;;;18.71;98.99
59825;BME280;45703;50.898;6.054;2023-07-31T11:38:02;99479.22;;;18.74;99.81
59825;BME280;45703;50.898;6.054;2023-07-31T11:40:28;99472.94;;;18.78;99.55
59825;BME280;45703;50.898;6.054;2023-07-31T11:43:03;99473.75;;;18.79;100.00
59825;BME280;45703;50.898;6.054;2023-07-31T11:45:30;99473.16;;;18.82;99.85
59825;BME280;45703;50.898;6.054;2023-07-31T11:47:55;99462.34;;;18.82;99.65
59825;BME280;45703;50.898;6.054;2023-07-31T11:50:22;99468.72;;;18.91;100.00
59825;BME280;45703;50.898;6.054;2023-07-31T11:52:52;99466.53;;;18.92;100.00
59825;BME280;45703;50.898;6.054;2023-07-31T11:55:20;99481.25;;;19.00;100.00
59825;BME280;45703;50.898;6.054;2023-07-31T11:57:46;99468.84;;;18.99;100.00
59825;BME280;45703;50.898;6.054;2023-07-31T12:00:12;99467.97;;;19.03;100.00
59825;BME280;45703;50.898;6.054;2023-07-31T12:02:39;99479.72;;;19.12;100.00
59825;BME280;45703;50.898;6.054;2023-07-31T12:05:10;99470.25;;;19.15;99.45
59825;BME280;45703;50.898;6.054;2023-07-31T12:07:52;99461.88;;;19.11;99.12
59825;BME280;45703;50.898;6.054;2023-07-31T12:10:29;99463.50;;;19.12;98.89
59825;BME280;45703;50.898;6.054;2023-07-31T12:13:06;99451.84;;;19.12;99.45
59825;BME280;45703;50.898;6.054;2023-07-31T12:15:42;99444.25;;;19.14;99.40
59825;BME280;45703;50.898;6.054;2023-07-31T12:18:16;99447.69;;;19.19;99.05
59825;BME280;45703;50.898;6.054;2023-07-31T12:21:04;99433.88;;;19.21;99.36
59825;BME280;45703;50.898;6.054;2023-07-31T12:23:31;99444.13;;;19.24;98.75
59825;BME280;45703;50.898;6.054;2023-07-31T12:28:42;99443.81;;;19.25;98.40
59825;BME280;45703;50.898;6.054;2023-07-31T12:31:13;99440.91;;;19.22;98.11
59825;BME280;45703;50.898;6.054;2023-07-31T12:33:39;99442.78;;;19.21;98.17
59825;BME280;45703;50.898;6.054;2023-07-31T12:36:08;99454.53;;;19.17;97.45
59825;BME280;45703;50.898;6.054;2023-07-31T12:38:34;99456.72;;;19.15;97.24
59825;BME280;45703;50.898;6.054;2023-07-31T12:40:59;99444.63;;;19.07;97.83
59825;BME280;45703;50.898;6.054;2023-07-31T12:43:25;99431.31;;;19.11;97.43
59825;BME280;45703;50.898;6.054;2023-07-31T12:45:50;99419.63;;;19.15;97.67
59825;BME280;45703;50.898;6.054;2023-07-31T12:48:16;99397.38;;;19.18;99.02
59825;BME280;45703;50.898;6.054;2023-07-31T12:50:44;99382.69;;;19.38;98.59
59825;BME280;45703;50.898;6.054;2023-07-31T12:53:09;99371.56;;;19.53;98.05
59825;BME280;45703;50.898;6.054;2023-07-31T12:55:35;99364.19;;;19.72;98.13
59825;BME280;45703;50.898;6.054;2023-07-31T12:58:02;99359.72;;;19.89;96.91